sensor_id;sensor_type;location;lat;lon;timestamp;pressure;altitude;pressure_sealevel;temperature;humidity
63654;BME280;49809;47.418;19.080;2023-12-28T00:01:32;101369.59;;;0.44;100.00
63654;BME280;49809;47.418;19.080;2023-12-28T00:05:08;101372.53;;;0.41;100.00
63654;BME280;49809;47.418;19.080;2023-12-28T00:08:39;101378.41;;;0.43;100.00
63654;BME280;49809;47.418;19.080;2023-12-28T00:11:55;101371.84;;;0.39;100.00
63654;BME280;49809;47.418;19.080;2023-12-28T00:15:30;101372.53;;;0.41;100.00
63654;BME280;49809;47.418;19.080;2023-12-28T00:18:55;101378.06;;;0.38;100.00
63654;BME280;49809;47.418;19.080;2023-12-28T00:22:31;101367.12;;;0.35;100.00
63654;BME280;49809;47.418;19.080;2023-12-28T00:25:53;101387.16;;;0.34;100.00
63654;BME280;49809;47.418;19.080;2023-12-28T00:29:42;101384.53;;;0.34;100.00
63654;BME280;49809;47.418;19.080;2023-12-28T00:33:28;101384.38;;;0.28;100.00
63654;BME280;49809;47.418;19.080;2023-12-28T00:37:33;101391.66;;;0.24;100.00
63654;BME280;49809;47.418;19.080;2023-12-28T00:41:26;101390.34;;;0.20;100.00
63654;BME280;49809;47.418;19.080;2023-12-28T00:45:07;101398.50;;;0.17;100.00
63654;BME280;49809;47.418;19.080;2023-12-28T00:48:35;101387.25;;;0.17;100.00
63654;BME280;49809;47.418;19.080;2023-12-28T00:52:00;101383.53;;;0.19;100.00
63654;BME280;49809;47.418;19.080;2023-12-28T00:55:42;101384.50;;;0.18;100.00
63654;BME280;49809;47.418;19.080;2023-12-28T00:59:11;101384.78;;;0.15;100.00
63654;BME280;49809;47.418;19.080;2023-12-28T01:02:49;101386.75;;;0.13;100.00
63654;BME280;49809;47.418;19.080;2023-12-28T01:06:20;101381.56;;;0.13;100.00
63654;BME280;49809;47.418;19.080;2023-12-28T01:09:40;101397.00;;;0.15;100.00
63654;BME280;49809;47.418;19.080;2023-12-28T01:13:14;101409.69;;;0.10;100.00
63654;BME280;49809;47.418;19.080;2023-12-28T01:16:32;101401.56;;;0.13;100.00
63654;BME280;49809;47.418;19.080;2023-12-28T01:20:05;101397.47;;;0.10;100.00
63654;BME280;49809;47.418;19.080;2023-12-28T01:23:54;101405.00;;;0.13;100.00
63654;BME280;49809;47.418;19.080;2023-12-28T01:27:09;101402.38;;;0.13;100.00
63654;BME280;49809;47.418;19.080;2023-12-28T01:30:37;101399.78;;;0.13;100.00
63654;BME280;49809;47.418;19.080;2023-12-28T01:34:22;101394.88;;;0.10;100.00
63654;BME280;49809;47.418;19.080;2023-12-28T01:37:54;101391.62;;;0.08;100.00
63654;BME280;49809;47.418;19.080;2023-12-28T01:41:19;101383.13;;;0.06;100.00
63654;BME280;49809;47.418;19.080;2023-12-28T01:44:47;101381.81;;;0.02;100.00
63654;BME280;49809;47.418;19.080;2023-12-28T01:48:15;101376.13;;;-0.02;100.00
63654;BME280;49809;47.418;19.080;2023-12-28T01:52:00;101374.16;;;0.00;100.00
63654;BME280;49809;47.418;19.080;2023-12-28T01:55:17;101367.81;;;-0.05;100.00
63654;BME280;49809;47.418;19.080;2023-12-28T01:58:49;101369.06;;;-0.09;100.00
63654;BME280;49809;47.418;19.080;2023-12-28T02:02:04;101360.62;;;-0.11;100.00
63654;BME280;49809;47.418;19.080;2023-12-28T02:05:48;101359.31;;;-0.15;100.00
63654;BME280;49809;47.418;19.080;2023-12-28T02:09:14;101345.59;;;-0.25;100.00
63654;BME280;49809;47.418;19.080;2023-12-28T02:12:41;101346.25;;;-0.23;100.00
63654;BME280;49809;47.418;19.080;2023-12-28T02:16:13;101352.09;;;-0.29;100.00
63654;BME280;49809;47.418;19.080;2023-12-28T02:19:47;101350.94;;;-0.27;100.00
63654;BME280;49809;47.418;19.080;2023-12-28T02:23:34;101340.03;;;-0.30;100.00
63654;BME280;49809;47.418;19.080;2023-12-28T02:26:49;101351.06;;;-0.36;100.00
63654;BME280;49809;47.418;19.080;2023-12-28T02:30:21;101337.09;;;-0.35;100.00
63654;BME280;49809;47.418;19.080;2023-12-28T02:34:04;101326.38;;;-0.32;100.00
63654;BME280;49809;47.418;19.080;2023-12-28T02:37:58;101340.97;;;-0.39;100.00
63654;BME280;49809;47.418;19.080;2023-12-28T02:41:30;101331.53;;;-0.40;100.00
63654;BME280;49809;47.418;19.080;2023-12-28T02:45:07;101319.13;;;-0.47;100.00
63654;BME280;49809;47.418;19.080;2023-12-28T02:48:49;101323.22;;;-0.44;100.00
63654;BME280;49809;47.418;19.080;2023-12-28T02:52:11;101316.69;;;-0.48;100.00
63654;BME280;49809;47.418;19.080;2023-12-28T02:55:35;101313.59;;;-0.52;100.00
63654;BME280;49809;47.418;19.080;2023-12-28T02:59:14;101314.72;;;-0.54;100.00
63654;BME280;49809;47.418;19.080;2023-12-28T03:02:35;101314.19;;;-0.58;100.00
63654;BME280;49809;47.418;19.080;2023-12-28T03:06:12;101318.44;;;-0.57;100.00
63654;BME280;49809;47.418;19.080;2023-12-28T03:09:39;101316.78;;;-0.58;100.00
63654;BME280;49809;47.418;19.080;2023-12-28T03:13:13;101314.66;;;-0.62;100.00
63654;BME280;49809;47.418;19.080;2023-12-28T03:16:47;101308.00;;;-0.65;100.00
63654;BME280;49809;47.418;19.080;2023-12-28T03:20:14;101304.72;;;-0.67;100.00
63654;BME280;49809;47.418;19.080;2023-12-28T03:23:51;101299.16;;;-0.72;100.00
63654;BME280;49809;47.418;19.080;2023-12-28T03:27:20;101292.62;;;-0.76;100.00
63654;BME280;49809;47.418;19.080;2023-12-28T03:30:48;101296.38;;;-0.78;100.00
63654;BME280;49809;47.418;19.080;2023-12-28T03:34:29;101289.84;;;-0.82;100.00
63654;BME280;49809;47.418;19.080;2023-12-28T03:37:57;101288.38;;;-0.85;100.00
63654;BME280;49809;47.418;19.080;2023-12-28T03:41:25;101287.03;;;-0.89;100.00
63654;BME280;49809;47.418;19.080;2023-12-28T03:44:58;101278.56;;;-0.91;100.00
63654;BME280;49809;47.418;19.080;2023-12-28T03:48:22;101277.94;;;-0.93;100.00
63654;BME280;49809;47.418;19.080;2023-12-28T03:51:51;101271.09;;;-0.94;100.00
63654;BME280;49809;47.418;19.080;2023-12-28T03:55:08;101261.66;;;-0.95;100.00
63654;BME280;49809;47.418;19.080;2023-12-28T03:58:11;101269.78;;;-0.98;100.00
63654;BME280;49809;47.418;19.080;2023-12-28T04:01:50;101277.84;;;-1.01;100.00
63654;BME280;49809;47.418;19.080;2023-12-28T04:05:17;101263.91;;;-1.00;100.00
63654;BME280;49809;47.418;19.080;2023-12-28T04:08:56;101264.22;;;-1.03;100.00
63654;BME280;49809;47.418;19.080;2023-12-28T04:12:38;101267.09;;;-1.06;100.00
63654;BME280;49809;47.418;19.080;2023-12-28T04:16:24;101268.09;;;-1.07;100.00
63654;BME280;49809;47.418;19.080;2023-12-28T04:19:49;101260.66;;;-1.02;100.00
63654;BME280;49809;47.418;19.080;2023-12-28T04:23:18;101259.03;;;-1.03;100.00
63654;BME280;49809;47.418;19.080;2023-12-28T04:26:54;101263.53;;;-1.05;100.00
63654;BME280;49809;47.418;19.080;2023-12-28T04:30:20;101255.03;;;-1.15;100.00
63654;BME280;49809;47.418;19.080;2023-12-28T04:33:37;101241.38;;;-1.17;100.00
63654;BME280;49809;47.418;19.080;2023-12-28T04:37:05;101239.06;;;-1.20;100.00
63654;BME280;49809;47.418;19.080;2023-12-28T04:40:32;101245.03;;;-1.28;100.00
63654;BME280;49809;47.418;19.080;2023-12-28T04:44:12;101238.81;;;-1.35;100.00
63654;BME280;49809;47.418;19.080;2023-12-28T04:47:39;101241.84;;;-1.40;100.00
63654;BME280;49809;47.418;19.080;2023-12-28T04:51:20;101237.94;;;-1.44;100.00
63654;BME280;49809;47.418;19.080;2023-12-28T04:55:04;101247.66;;;-1.46;100.00
63654;BME280;49809;47.418;19.080;2023-12-28T04:58:40;101238.97;;;-1.37;100.00
63654;BME280;49809;47.418;19.080;2023-12-28T05:02:10;101227.91;;;-1.39;100.00
63654;BME280;49809;47.418;19.080;2023-12-28T05:06:01;101236.16;;;-1.43;100.00
63654;BME280;49809;47.418;19.080;2023-12-28T05:09:34;101234.16;;;-1.49;100.00
63654;BME280;49809;47.418;19.080;2023-12-28T05:12:59;101246.25;;;-1.58;100.00
63654;BME280;49809;47.418;19.080;2023-12-28T05:16:24;101230.31;;;-1.63;100.00
63654;BME280;49809;47.418;19.080;2023-12-28T05:20:10;101225.44;;;-1.66;100.00
63654;BME280;49809;47.418;19.080;2023-12-28T05:23:24;101243.87;;;-1.69;100.00
63654;BME280;49809;47.418;19.080;2023-12-28T05:26:49;101243.00;;;-1.60;100.00
63654;BME280;49809;47.418;19.080;2023-12-28T05:30:13;101238.16;;;-1.55;100.00
63654;BME280;49809;47.418;19.080;2023-12-28T05:33:40;101242.34;;;-1.62;100.00
63654;BME280;49809;47.418;19.080;2023-12-28T05:37:33;101248.09;;;-1.68;100.00
63654;BME280;49809;47.418;19.080;2023-12-28T05:41:12;101247.00;;;-1.65;100.00
63654;BME280;49809;47.418;19.080;2023-12-28T05:44:39;101247.16;;;-1.67;100.00
63654;BME280;49809;47.418;19.080;2023-12-28T05:48:07;101248.09;;;-1.68;100.00
63654;BME280;49809;47.418;19.080;2023-12-28T05:51:41;101241.22;;;-1.77;100.00
63654;BME280;49809;47.418;19.080;2023-12-28T05:55:15;101239.56;;;-1.78;100.00
63654;BME280;49809;47.418;19.080;2023-12-28T05:58:30;101243.13;;;-1.79;100.00
63654;BME280;49809;47.418;19.080;2023-12-28T06:01:57;101242.53;;;-1.73;100.00
63654;BME280;49809;47.418;19.080;2023-12-28T06:05:34;101260.13;;;-1.67;100.00
63654;BME280;49809;47.418;19.080;2023-12-28T06:09:02;101255.62;;;-1.65;100.00
63654;BME280;49809;47.418;19.080;2023-12-28T06:12:41;101252.72;;;-1.62;100.00
63654;BME280;49809;47.418;19.080;2023-12-28T06:15:45;101250.87;;;-1.69;100.00
63654;BME280;49809;47.418;19.080;2023-12-28T06:19:26;101249.81;;;-1.77;100.00
63654;BME280;49809;47.418;19.080;2023-12-28T06:23:01;101257.66;;;-1.68;100.00
63654;BME280;49809;47.418;19.080;2023-12-28T06:27:01;101244.56;;;-1.67;100.00
63654;BME280;49809;47.418;19.080;2023-12-28T06:30:21;101246.72;;;-1.80;100.00
63654;BME280;49809;47.418;19.080;2023-12-28T06:34:03;101244.41;;;-1.83;100.00
63654;BME280;49809;47.418;19.080;2023-12-28T06:37:48;101239.50;;;-1.86;100.00
63654;BME280;49809;47.418;19.080;2023-12-28T06:41:12;101237.94;;;-1.79;100.00
63654;BME280;49809;47.418;19.080;2023-12-28T06:45:00;101248.50;;;-1.81;100.00
63654;BME280;49809;47.418;19.080;2023-12-28T06:48:34;101250.97;;;-1.89;100.00
63654;BME280;49809;47.418;19.080;2023-12-28T06:52:01;101264.94;;;-1.72;100.00
63654;BME280;49809;47.418;19.080;2023-12-28T06:55:19;101279.56;;;-1.71;100.00
63654;BME280;49809;47.418;19.080;2023-12-28T06:58:59;101278.59;;;-1.70;100.00
63654;BME280;49809;47.418;19.080;2023-12-28T07:02:28;101290.59;;;-1.69;100.00
63654;BME280;49809;47.418;19.080;2023-12-28T07:06:03;101288.69;;;-1.67;100.00
63654;BME280;49809;47.418;19.080;2023-12-28T07:09:31;101288.00;;;-1.69;100.00
63654;BME280;49809;47.418;19.080;2023-12-28T07:13:00;101288.25;;;-1.62;100.00
63654;BME280;49809;47.418;19.080;2023-12-28T07:16:28;101285.19;;;-1.58;100.00
63654;BME280;49809;47.418;19.080;2023-12-28T07:19:52;101288.03;;;-1.51;100.00
63654;BME280;49809;47.418;19.080;2023-12-28T07:23:37;101280.16;;;-1.42;100.00
63654;BME280;49809;47.418;19.080;2023-12-28T07:27:20;101280.34;;;-1.35;100.00
63654;BME280;49809;47.418;19.080;2023-12-28T07:31:22;101276.53;;;-1.31;100.00
63654;BME280;49809;47.418;19.080;2023-12-28T07:34:25;101275.06;;;-1.25;100.00
63654;BME280;49809;47.418;19.080;2023-12-28T07:37:53;101291.37;;;-1.15;100.00
63654;BME280;49809;47.418;19.080;2023-12-28T07:41:16;101296.44;;;-1.14;100.00
63654;BME280;49809;47.418;19.080;2023-12-28T07:44:41;101293.00;;;-0.97;100.00
63654;BME280;49809;47.418;19.080;2023-12-28T07:48:31;101293.22;;;-0.90;100.00
63654;BME280;49809;47.418;19.080;2023-12-28T07:52:04;101289.41;;;-0.78;100.00
63654;BME280;49809;47.418;19.080;2023-12-28T07:55:32;101296.31;;;-0.61;100.00
63654;BME280;49809;47.418;19.080;2023-12-28T07:59:13;101291.81;;;-0.51;100.00
63654;BME280;49809;47.418;19.080;2023-12-28T08:02:30;101295.16;;;-0.32;100.00
63654;BME280;49809;47.418;19.080;2023-12-28T08:06:40;101297.41;;;-0.37;100.00
63654;BME280;49809;47.418;19.080;2023-12-28T08:10:04;101296.34;;;-0.19;100.00
63654;BME280;49809;47.418;19.080;2023-12-28T08:13:55;101292.34;;;-0.05;100.00
63654;BME280;49809;47.418;19.080;2023-12-28T08:17:16;101294.34;;;0.09;100.00
63654;BME280;49809;47.418;19.080;2023-12-28T08:21:12;101288.69;;;0.38;100.00
63654;BME280;49809;47.418;19.080;2023-12-28T08:24:45;101282.03;;;0.60;100.00
63654;BME280;49809;47.418;19.080;2023-12-28T08:28:19;101277.28;;;1.04;100.00
63654;BME280;49809;47.418;19.080;2023-12-28T08:31:58;101285.25;;;1.18;100.00
63654;BME280;49809;47.418;19.080;2023-12-28T08:35:25;101289.94;;;1.39;100.00
63654;BME280;49809;47.418;19.080;2023-12-28T08:38:58;101289.91;;;1.47;100.00
63654;BME280;49809;47.418;19.080;2023-12-28T08:42:24;101298.81;;;1.61;100.00
63654;BME280;49809;47.418;19.080;2023-12-28T08:46:00;101311.25;;;1.59;100.00
63654;BME280;49809;47.418;19.080;2023-12-28T08:49:36;101313.00;;;1.66;100.00
63654;BME280;49809;47.418;19.080;2023-12-28T08:52:53;101294.87;;;1.73;100.00
63654;BME280;49809;47.418;19.080;2023-12-28T08:56:20;101301.53;;;1.75;100.00
63654;BME280;49809;47.418;19.080;2023-12-28T08:59:53;101306.25;;;1.88;100.00
63654;BME280;49809;47.418;19.080;2023-12-28T09:03:39;101306.34;;;1.95;100.00
63654;BME280;49809;47.418;19.080;2023-12-28T09:07:07;101304.53;;;2.03;100.00
63654;BME280;49809;47.418;19.080;2023-12-28T09:10:31;101304.19;;;2.06;100.00
63654;BME280;49809;47.418;19.080;2023-12-28T09:14:00;101295.03;;;2.33;100.00
63654;BME280;49809;47.418;19.080;2023-12-28T09:17:25;101290.09;;;2.46;100.00
63654;BME280;49809;47.418;19.080;2023-12-28T09:21:07;101285.59;;;2.55;100.00
63654;BME280;49809;47.418;19.080;2023-12-28T09:24:20;101284.56;;;2.64;100.00
63654;BME280;49809;47.418;19.080;2023-12-28T09:27:48;101284.37;;;2.66;100.00
63654;BME280;49809;47.418;19.080;2023-12-28T09:31:17;101282.16;;;2.77;100.00
63654;BME280;49809;47.418;19.080;2023-12-28T09:34:44;101271.37;;;2.95;100.00
63654;BME280;49809;47.418;19.080;2023-12-28T09:38:15;101269.06;;;3.15;100.00
63654;BME280;49809;47.418;19.080;2023-12-28T09:41:43;101268.72;;;3.18;100.00
63654;BME280;49809;47.418;19.080;2023-12-28T09:45:13;101245.31;;;3.01;100.00
63654;BME280;49809;47.418;19.080;2023-12-28T09:48:50;101237.88;;;3.28;100.00
63654;BME280;49809;47.418;19.080;2023-12-28T09:52:22;101235.25;;;3.28;100.00
63654;BME280;49809;47.418;19.080;2023-12-28T09:56:13;101231.69;;;3.50;100.00
63654;BME280;49809;47.418;19.080;2023-12-28T09:59:45;101224.47;;;3.67;100.00
63654;BME280;49809;47.418;19.080;2023-12-28T10:03:16;101221.31;;;3.71;100.00
63654;BME280;49809;47.418;19.080;2023-12-28T10:06:51;101213.78;;;3.68;100.00
63654;BME280;49809;47.418;19.080;2023-12-28T10:10:16;101206.72;;;3.83;100.00
63654;BME280;49809;47.418;19.080;2023-12-28T10:13:56;101199.59;;;3.92;100.00
63654;BME280;49809;47.418;19.080;2023-12-28T10:17:24;101187.09;;;3.94;100.00
63654;BME280;49809;47.418;19.080;2023-12-28T10:20:58;101178.69;;;3.99;100.00
63654;BME280;49809;47.418;19.080;2023-12-28T10:24:43;101188.16;;;4.00;100.00
63654;BME280;49809;47.418;19.080;2023-12-28T10:28:20;101179.59;;;4.12;100.00
63654;BME280;49809;47.418;19.080;2023-12-28T10:31:54;101175.31;;;4.26;100.00
63654;BME280;49809;47.418;19.080;2023-12-28T10:35:36;101169.56;;;4.37;100.00
63654;BME280;49809;47.418;19.080;2023-12-28T10:39:19;101172.59;;;4.41;100.00
63654;BME280;49809;47.418;19.080;2023-12-28T10:43:19;101170.91;;;4.54;100.00
63654;BME280;49809;47.418;19.080;2023-12-28T10:47:15;101165.19;;;4.72;100.00
63654;BME280;49809;47.418;19.080;2023-12-28T10:51:04;101157.12;;;4.73;100.00
63654;BME280;49809;47.418;19.080;2023-12-28T10:58:49;101149.56;;;4.92;100.00
63654;BME280;49809;47.418;19.080;2023-12-28T11:02:18;101151.22;;;4.99;100.00
63654;BME280;49809;47.418;19.080;2023-12-28T11:06:13;101148.00;;;5.04;100.00
63654;BME280;49809;47.418;19.080;2023-12-28T11:09:47;101138.41;;;5.17;100.00
63654;BME280;49809;47.418;19.080;2023-12-28T11:13:23;101125.75;;;5.34;100.00
63654;BME280;49809;47.418;19.080;2023-12-28T11:16:41;101123.97;;;5.41;100.00
63654;BME280;49809;47.418;19.080;2023-12-28T11:20:08;101119.91;;;5.52;100.00
63654;BME280;49809;47.418;19.080;2023-12-28T11:23:49;101112.69;;;5.60;100.00
63654;BME280;49809;47.418;19.080;2023-12-28T11:27:33;101110.28;;;5.72;99.73
63654;BME280;49809;47.418;19.080;2023-12-28T11:31:13;101104.47;;;5.96;98.98
63654;BME280;49809;47.418;19.080;2023-12-28T11:34:57;101102.06;;;6.08;98.69
63654;BME280;49809;47.418;19.080;2023-12-28T11:38:31;101095.78;;;6.35;100.00
63654;BME280;49809;47.418;19.080;2023-12-28T11:42:02;101102.06;;;6.21;98.79
63654;BME280;49809;47.418;19.080;2023-12-28T11:45:30;101093.56;;;6.26;98.83
63654;BME280;49809;47.418;19.080;2023-12-28T11:49:08;101087.09;;;6.28;97.13
63654;BME280;49809;47.418;19.080;2023-12-28T11:52:56;101078.38;;;6.41;97.60
63654;BME280;49809;47.418;19.080;2023-12-28T11:56:26;101058.97;;;6.48;97.07
63654;BME280;49809;47.418;19.080;2023-12-28T12:00:00;101044.78;;;6.49;96.18
63654;BME280;49809;47.418;19.080;2023-12-28T12:03:33;101036.69;;;6.58;96.55
63654;BME280;49809;47.418;19.080;2023-12-28T12:06:52;101024.88;;;6.80;94.98
63654;BME280;49809;47.418;19.080;2023-12-28T12:10:24;101037.03;;;6.74;94.88
63654;BME280;49809;47.418;19.080;2023-12-28T12:13:51;101033.31;;;6.88;94.27
63654;BME280;49809;47.418;19.080;2023-12-28T12:17:31;101043.91;;;6.82;94.45
63654;BME280;49809;47.418;19.080;2023-12-28T12:20:45;101045.47;;;6.89;94.16
63654;BME280;49809;47.418;19.080;2023-12-28T12:24:20;101035.09;;;7.01;93.94
63654;BME280;49809;47.418;19.080;2023-12-28T12:27:58;101029.41;;;7.04;93.86
63654;BME280;49809;47.418;19.080;2023-12-28T12:31:40;101035.66;;;7.16;93.60
63654;BME280;49809;47.418;19.080;2023-12-28T12:35:14;101042.56;;;7.11;93.43
63654;BME280;49809;47.418;19.080;2023-12-28T12:38:58;101029.94;;;7.19;93.27
63654;BME280;49809;47.418;19.080;2023-12-28T12:42:20;101017.66;;;7.45;92.55
63654;BME280;49809;47.418;19.080;2023-12-28T12:45:57;101017.72;;;7.31;91.72
63654;BME280;49809;47.418;19.080;2023-12-28T12:49:36;101023.50;;;7.15;93.23
63654;BME280;49809;47.418;19.080;2023-12-28T12:53:08;101030.84;;;7.38;92.36
63654;BME280;49809;47.418;19.080;2023-12-28T12:56:50;101031.03;;;7.36;92.20
63654;BME280;49809;47.418;19.080;2023-12-28T13:00:27;101039.53;;;7.45;92.09
63654;BME280;49809;47.418;19.080;2023-12-28T13:03:52;101031.00;;;7.50;91.68
63654;BME280;49809;47.418;19.080;2023-12-28T13:07:25;101018.31;;;7.65;91.27
63654;BME280;49809;47.418;19.080;2023-12-28T13:10:52;101016.41;;;7.72;91.26
63654;BME280;49809;47.418;19.080;2023-12-28T13:14:24;101012.50;;;7.81;90.22
63654;BME280;49809;47.418;19.080;2023-12-28T13:17:51;101007.75;;;7.90;89.97
63654;BME280;49809;47.418;19.080;2023-12-28T13:21:20;101005.75;;;8.10;89.60
63654;BME280;49809;47.418;19.080;2023-12-28T13:24:50;101013.09;;;8.26;89.44
63654;BME280;49809;47.418;19.080;2023-12-28T13:28:06;101000.75;;;8.45;87.73
63654;BME280;49809;47.418;19.080;2023-12-28T13:31:40;101009.56;;;8.75;86.58
63654;BME280;49809;47.418;19.080;2023-12-28T13:35:06;100999.53;;;9.25;84.10
63654;BME280;49809;47.418;19.080;2023-12-28T13:38:26;101013.50;;;9.44;82.51
63654;BME280;49809;47.418;19.080;2023-12-28T13:41:46;101023.97;;;9.21;83.32
63654;BME280;49809;47.418;19.080;2023-12-28T13:45:45;101018.41;;;9.10;83.36
63654;BME280;49809;47.418;19.080;2023-12-28T13:49:03;101008.06;;;8.79;84.76
63654;BME280;49809;47.418;19.080;2023-12-28T13:52:29;101006.03;;;8.45;85.89
63654;BME280;49809;47.418;19.080;2023-12-28T13:56:07;101029.50;;;8.28;87.35
63654;BME280;49809;47.418;19.080;2023-12-28T13:59:28;101035.94;;;7.89;89.44
63654;BME280;49809;47.418;19.080;2023-12-28T14:03:04;101039.22;;;7.84;90.26
63654;BME280;49809;47.418;19.080;2023-12-28T14:06:31;101037.19;;;7.86;90.35
63654;BME280;49809;47.418;19.080;2023-12-28T14:09:57;101024.22;;;7.85;90.31
63654;BME280;49809;47.418;19.080;2023-12-28T14:13:30;101007.97;;;7.63;91.10
63654;BME280;49809;47.418;19.080;2023-12-28T14:17:12;101006.34;;;7.37;92.18
63654;BME280;49809;47.418;19.080;2023-12-28T14:20:42;101002.03;;;7.12;93.31
63654;BME280;49809;47.418;19.080;2023-12-28T14:24:16;101010.50;;;6.82;95.85
63654;BME280;49809;47.418;19.080;2023-12-28T14:28:01;101018.28;;;6.58;96.25
63654;BME280;49809;47.418;19.080;2023-12-28T14:31:38;101005.38;;;6.30;97.00
63654;BME280;49809;47.418;19.080;2023-12-28T14:35:12;101017.34;;;6.06;99.26
63654;BME280;49809;47.418;19.080;2023-12-28T14:38:46;101037.53;;;5.86;100.00
63654;BME280;49809;47.418;19.080;2023-12-28T14:42:18;101030.47;;;5.66;100.00
63654;BME280;49809;47.418;19.080;2023-12-28T14:45:56;101032.25;;;5.40;100.00
63654;BME280;49809;47.418;19.080;2023-12-28T14:49:16;101044.09;;;5.16;100.00
63654;BME280;49809;47.418;19.080;2023-12-28T14:53:06;101043.84;;;4.98;100.00
63654;BME280;49809;47.418;19.080;2023-12-28T14:56:43;101051.19;;;4.74;100.00
63654;BME280;49809;47.418;19.080;2023-12-28T15:00:19;101051.91;;;4.55;100.00
63654;BME280;49809;47.418;19.080;2023-12-28T15:03:56;101039.25;;;4.31;100.00
63654;BME280;49809;47.418;19.080;2023-12-28T15:07:30;101038.69;;;4.08;100.00
63654;BME280;49809;47.418;19.080;2023-12-28T15:11:15;101029.28;;;3.85;100.00
63654;BME280;49809;47.418;19.080;2023-12-28T15:14:53;101018.44;;;3.67;100.00
63654;BME280;49809;47.418;19.080;2023-12-28T15:18:25;101022.56;;;3.55;100.00
63654;BME280;49809;47.418;19.080;2023-12-28T15:22:08;101029.06;;;3.38;100.00
63654;BME280;49809;47.418;19.080;2023-12-28T15:26:00;101029.91;;;3.24;100.00
63654;BME280;49809;47.418;19.080;2023-12-28T15:29:32;101025.06;;;3.06;100.00
63654;BME280;49809;47.418;19.080;2023-12-28T15:33:09;101028.09;;;2.88;100.00
63654;BME280;49809;47.418;19.080;2023-12-28T15:36:35;101022.72;;;2.75;100.00
63654;BME280;49809;47.418;19.080;2023-12-28T15:40:04;101013.09;;;2.61;100.00
63654;BME280;49809;47.418;19.080;2023-12-28T15:43:38;101011.91;;;2.49;100.00
63654;BME280;49809;47.418;19.080;2023-12-28T15:47:17;101008.12;;;2.37;100.00
63654;BME280;49809;47.418;19.080;2023-12-28T15:50:35;101001.28;;;2.36;100.00
63654;BME280;49809;47.418;19.080;2023-12-28T15:54:15;100990.13;;;2.27;100.00
63654;BME280;49809;47.418;19.080;2023-12-28T15:57:53;100983.72;;;2.15;100.00
63654;BME280;49809;47.418;19.080;2023-12-28T16:01:17;100990.53;;;2.01;100.00
63654;BME280;49809;47.418;19.080;2023-12-28T16:04:59;100990.00;;;1.91;100.00
63654;BME280;49809;47.418;19.080;2023-12-28T16:08:56;100989.81;;;1.93;100.00
63654;BME280;49809;47.418;19.080;2023-12-28T16:12:30;100998.53;;;1.85;100.00
63654;BME280;49809;47.418;19.080;2023-12-28T16:15:57;101006.87;;;1.81;100.00
63654;BME280;49809;47.418;19.080;2023-12-28T16:19:32;101007.31;;;1.69;100.00
63654;BME280;49809;47.418;19.080;2023-12-28T16:23:08;101003.34;;;1.59;100.00
63654;BME280;49809;47.418;19.080;2023-12-28T16:26:43;101008.50;;;1.44;100.00
63654;BME280;49809;47.418;19.080;2023-12-28T16:30:17;100999.72;;;1.37;100.00
63654;BME280;49809;47.418;19.080;2023-12-28T16:33:45;100999.28;;;1.34;100.00
63654;BME280;49809;47.418;19.080;2023-12-28T16:37:31;100981.88;;;1.26;100.00
63654;BME280;49809;47.418;19.080;2023-12-28T16:41:06;100992.22;;;1.19;100.00
63654;BME280;49809;47.418;19.080;2023-12-28T16:44:24;100993.94;;;1.27;100.00
63654;BME280;49809;47.418;19.080;2023-12-28T16:48:00;100971.94;;;1.29;100.00
63654;BME280;49809;47.418;19.080;2023-12-28T16:51:17;100956.59;;;1.26;100.00
63654;BME280;49809;47.418;19.080;2023-12-28T16:54:53;100998.53;;;1.25;100.00
63654;BME280;49809;47.418;19.080;2023-12-28T16:58:35;101015.50;;;1.21;100.00
63654;BME280;49809;47.418;19.080;2023-12-28T17:01:59;101009.34;;;1.37;100.00
63654;BME280;49809;47.418;19.080;2023-12-28T17:05:37;101022.00;;;1.25;100.00
63654;BME280;49809;47.418;19.080;2023-12-28T17:09:20;101017.31;;;1.20;100.00
63654;BME280;49809;47.418;19.080;2023-12-28T17:13:14;101023.25;;;1.06;100.00
63654;BME280;49809;47.418;19.080;2023-12-28T17:16:44;101017.78;;;0.93;100.00
63654;BME280;49809;47.418;19.080;2023-12-28T17:20:11;101019.56;;;0.93;100.00
63654;BME280;49809;47.418;19.080;2023-12-28T17:23:48;101023.69;;;0.87;100.00
63654;BME280;49809;47.418;19.080;2023-12-28T17:27:25;101033.50;;;0.77;100.00
63654;BME280;49809;47.418;19.080;2023-12-28T17:30:46;101045.56;;;0.70;100.00
63654;BME280;49809;47.418;19.080;2023-12-28T17:34:24;101045.94;;;0.59;100.00
63654;BME280;49809;47.418;19.080;2023-12-28T17:38:01;101055.06;;;0.55;100.00
63654;BME280;49809;47.418;19.080;2023-12-28T17:41:42;101047.59;;;0.52;100.00
63654;BME280;49809;47.418;19.080;2023-12-28T17:45:30;101045.94;;;0.59;100.00
63654;BME280;49809;47.418;19.080;2023-12-28T17:49:10;101055.06;;;0.55;100.00
63654;BME280;49809;47.418;19.080;2023-12-28T17:52:51;101049.88;;;0.47;100.00
63654;BME280;49809;47.418;19.080;2023-12-28T17:56:38;101047.13;;;0.40;100.00
63654;BME280;49809;47.418;19.080;2023-12-28T18:00:06;101042.41;;;0.35;100.00
63654;BME280;49809;47.418;19.080;2023-12-28T18:03:33;101044.56;;;0.24;100.00
63654;BME280;49809;47.418;19.080;2023-12-28T18:06:58;101038.38;;;0.17;100.00
63654;BME280;49809;47.418;19.080;2023-12-28T18:10:43;101033.69;;;0.12;100.00
63654;BME280;49809;47.418;19.080;2023-12-28T18:14:28;101038.09;;;0.04;100.00
63654;BME280;49809;47.418;19.080;2023-12-28T18:18:08;101047.84;;;0.10;100.00
63654;BME280;49809;47.418;19.080;2023-12-28T18:21:34;101056.44;;;0.10;100.00